Aérodrome :
LOGIN :

S'inscrire | Disclaimer

   EN    FR    IT 

 










Légende :    VFR   VFR Marginal   IFR   IFR Intensif   IFR Très Intensif
Visi : 
Plafond : 
>= 8 km
>= 3000ft
5 à 8 km
1000 à 3000 ft
1500m à 5 km
500 à 1000 ft
800 à 1500m
200 à 500 ft
< 800m
< 200 ft
Symboles :   Orages  Brouillard  Fortes neiges  Fortes précipitations  Vent > 20 kt
SIGMETs :   Divers  Orages  Givrage  Turbulence  Onde Orograph.  Cendres Volcan.







- Altitude de l'aérodrome : 648 ft
- Code IATA : INI


LYNI - Nis Constantine

DERNIER METAR :
  • 241830Z VRB01KT 9999 BKN050 15/11 Q1013 NOSIG

METARs EXPIRÉS :
  • 241800Z 30004KT 260V330 9999 BKN050 15/11 Q1013 NOSIG
  • 241730Z 33007KT 300V360 9999 BKN050 16/11 Q1012 NOSIG
  • 241700Z 33008KT 9999 BKN050 16/10 Q1012 NOSIG
  • 241630Z 31009KT 9999 BKN040 16/10 Q1012 NOSIG
  • 241600Z 33010KT 300V070 9999 BKN040 17/10 Q1011 NOSIG

TAF TAF LYNI
Valide du 24 à 18h jusqu'au 25 à 18h UTC


241700Z 2418/2518 31005KT 9999 BKN040 TX24/2513Z TN09/2503Z
Pas de NOTAMs connus pour ce terrain.



MET'MAP, la Météo Aéronautique d'un coup d'oeil ! - Copyright ORBIFLY Décembre 2007 - Disclaimer

ORBIFLY MET'MAP TEAM :

Programmation & Développement : Alexandra Zaïnal
Conception & Développement : Baudouin d'Aumeries
Co-Programmation & Développement : Marc-Olivier Méhu
Soutien technique & logistique : Manuel Goepfert

Contact : metmap@orbifly.com




SOURCES & CREDITS :

   NOAA